createdAt,value
2023-03-18T00:01:17.811Z,13.90
2023-03-18T00:03:47.698Z,11.30
2023-03-18T00:06:18.388Z,16.30
2023-03-18T00:08:48.934Z,11.90
2023-03-18T00:11:19.380Z,16.60
2023-03-18T00:13:48.807Z,12.20
2023-03-18T00:16:17.697Z,12.70
2023-03-18T00:18:46.505Z,15.30
2023-03-18T00:21:16.360Z,12.50
2023-03-18T00:23:44.600Z,16.10
2023-03-18T00:26:13.281Z,13.40
2023-03-18T00:28:42.864Z,13.50
2023-03-18T00:31:13.506Z,13.20
2023-03-18T00:33:45.198Z,11.30
2023-03-18T00:36:17.905Z,14.20
2023-03-18T00:38:50.414Z,16.50
2023-03-18T00:41:18.978Z,14.20
2023-03-18T00:43:51.790Z,13.80
2023-03-18T00:46:22.881Z,13.40
2023-03-18T00:48:52.489Z,15.40
2023-03-18T00:51:22.228Z,11.80
2023-03-18T00:53:52.746Z,14.20
2023-03-18T00:56:23.444Z,12.90
2023-03-18T00:58:53.357Z,8.30
2023-03-18T01:01:23.464Z,17.20
2023-03-18T01:03:52.805Z,13.80
2023-03-18T01:06:25.029Z,9.00
2023-03-18T01:08:54.861Z,12.10
2023-03-18T01:11:26.316Z,12.00
2023-03-18T01:13:54.839Z,9.00
2023-03-18T01:16:24.131Z,13.70
2023-03-18T01:18:53.180Z,16.50
2023-03-18T01:21:22.141Z,10.30
2023-03-18T01:23:54.056Z,12.10
2023-03-18T01:26:23.113Z,10.30
2023-03-18T01:28:51.866Z,15.20
2023-03-18T01:31:20.176Z,13.10
2023-03-18T01:33:49.394Z,9.50
2023-03-18T01:36:17.819Z,16.60
2023-03-18T01:38:47.986Z,10.00
2023-03-18T01:41:16.701Z,16.10
2023-03-18T01:43:45.252Z,9.30
2023-03-18T01:46:36.065Z,8.70
2023-03-18T01:49:12.362Z,8.90
2023-03-18T01:51:46.101Z,14.20
2023-03-18T01:54:15.885Z,12.30
2023-03-18T01:56:46.249Z,9.40
2023-03-18T01:59:15.513Z,10.10
2023-03-18T02:01:48.663Z,10.40
2023-03-18T02:04:19.055Z,11.70
2023-03-18T02:06:47.764Z,10.10
2023-03-18T02:09:17.383Z,13.20
2023-03-18T02:11:49.328Z,13.10
2023-03-18T02:14:20.810Z,12.00
2023-03-18T02:16:56.823Z,9.40
2023-03-18T02:22:17.224Z,11.80
2023-03-18T02:24:53.124Z,11.00
2023-03-18T02:27:23.614Z,12.40
2023-03-18T02:29:54.542Z,12.30
2023-03-18T02:32:26.719Z,14.40
2023-03-18T02:34:56.228Z,7.70
2023-03-18T02:37:24.860Z,13.60
2023-03-18T02:39:53.476Z,9.40
2023-03-18T02:42:29.584Z,9.20
2023-03-18T02:44:59.726Z,11.00
2023-03-18T02:47:31.777Z,11.10
2023-03-18T02:50:00.816Z,7.90
2023-03-18T02:52:29.080Z,10.70
2023-03-18T02:54:58.787Z,11.20
2023-03-18T02:57:27.475Z,14.00
2023-03-18T02:59:56.688Z,12.80
2023-03-18T03:02:25.264Z,15.50
2023-03-18T03:04:53.604Z,14.70
2023-03-18T03:07:25.572Z,10.90
2023-03-18T03:09:54.163Z,7.70
2023-03-18T03:12:22.806Z,13.10
2023-03-18T03:14:53.901Z,10.30
2023-03-18T03:17:22.232Z,9.30
2023-03-18T03:19:52.283Z,7.70
2023-03-18T03:22:20.579Z,8.50
2023-03-18T03:24:49.381Z,6.30
2023-03-18T03:27:17.785Z,9.90
2023-03-18T03:29:46.424Z,7.70
2023-03-18T03:32:15.515Z,9.00
2023-03-18T03:34:43.756Z,9.90
2023-03-18T03:37:13.315Z,8.30
2023-03-18T03:39:41.532Z,6.60
2023-03-18T03:42:10.733Z,6.50
2023-03-18T03:44:38.949Z,10.20
2023-03-18T03:47:07.867Z,8.20
2023-03-18T03:49:36.832Z,9.30
2023-03-18T03:52:06.836Z,11.90
2023-03-18T03:54:37.559Z,6.10
2023-03-18T03:57:07.319Z,4.70
2023-03-18T03:59:35.715Z,8.00
2023-03-18T04:02:20.971Z,10.40
2023-03-18T04:04:49.838Z,6.10
2023-03-18T04:07:25.014Z,9.70
2023-03-18T04:09:55.303Z,9.80
2023-03-18T04:12:23.645Z,5.20
2023-03-18T04:14:56.933Z,9.10
2023-03-18T04:17:25.304Z,8.10
2023-03-18T04:19:53.775Z,6.80
2023-03-18T04:22:23.473Z,9.90
2023-03-18T04:24:51.817Z,14.50
2023-03-18T04:27:22.075Z,10.10
2023-03-18T04:29:50.752Z,12.50
2023-03-18T04:32:19.276Z,6.70
2023-03-18T04:34:48.046Z,4.00
2023-03-18T04:37:19.429Z,7.70
2023-03-18T04:39:48.483Z,7.30
2023-03-18T04:42:17.377Z,9.40
2023-03-18T04:44:45.988Z,12.50
2023-03-18T04:47:14.850Z,7.10
2023-03-18T04:49:44.361Z,15.10
2023-03-18T04:52:13.437Z,8.10
2023-03-18T04:54:42.227Z,7.30
2023-03-18T04:57:11.087Z,9.50
2023-03-18T04:59:43.267Z,8.40
2023-03-18T05:02:11.965Z,7.70
2023-03-18T05:04:40.641Z,7.80
2023-03-18T05:07:12.810Z,10.00
2023-03-18T05:09:41.903Z,8.20
2023-03-18T05:12:14.226Z,7.10
2023-03-18T05:14:44.090Z,7.40
2023-03-18T05:17:15.337Z,6.00
2023-03-18T05:19:46.335Z,7.40
2023-03-18T05:22:19.291Z,7.40
2023-03-18T05:24:49.075Z,7.00
2023-03-18T05:27:19.400Z,6.60
2023-03-18T05:29:55.560Z,12.30
2023-03-18T05:32:31.655Z,14.70
2023-03-18T05:35:03.220Z,8.30
2023-03-18T05:37:31.720Z,8.70
2023-03-18T05:40:09.409Z,10.80
2023-03-18T05:42:49.428Z,10.10
2023-03-18T05:45:24.693Z,9.00
2023-03-18T05:47:55.100Z,12.30
2023-03-18T05:50:33.206Z,6.80
2023-03-18T05:53:02.771Z,8.40
2023-03-18T05:55:34.877Z,10.90
2023-03-18T05:58:03.932Z,11.10
2023-03-18T06:00:33.068Z,10.80
2023-03-18T06:03:02.220Z,9.50
2023-03-18T06:05:31.584Z,10.50
2023-03-18T06:08:00.732Z,9.20
2023-03-18T06:10:29.755Z,9.00
2023-03-18T06:12:58.088Z,8.00
2023-03-18T06:15:26.850Z,8.90
2023-03-18T06:17:55.720Z,8.70
2023-03-18T06:20:23.949Z,10.00
2023-03-18T06:22:52.217Z,11.50
2023-03-18T06:25:21.913Z,16.60
2023-03-18T06:27:51.701Z,11.30
2023-03-18T06:30:22.155Z,9.40
2023-03-18T06:32:52.814Z,16.20
2023-03-18T06:35:21.546Z,9.10
2023-03-18T06:37:49.747Z,10.20
2023-03-18T06:40:18.570Z,10.10
2023-03-18T06:42:47.114Z,9.50
2023-03-18T06:45:25.866Z,9.40
2023-03-18T06:48:01.175Z,6.60
2023-03-18T06:50:31.536Z,9.30
2023-03-18T06:52:59.958Z,12.40
2023-03-18T06:55:31.123Z,6.20
2023-03-18T06:57:59.613Z,10.30
2023-03-18T07:00:35.397Z,8.70
2023-03-18T07:03:05.989Z,9.60
2023-03-18T07:05:35.505Z,12.30
2023-03-18T07:08:03.928Z,8.00
2023-03-18T07:10:32.200Z,6.90
2023-03-18T07:13:12.792Z,9.00
2023-03-18T07:15:42.283Z,11.30
2023-03-18T07:18:12.183Z,7.60
2023-03-18T07:20:41.613Z,7.00
2023-03-18T07:23:10.799Z,8.80
2023-03-18T07:25:41.616Z,8.50
2023-03-18T07:28:10.531Z,7.90
2023-03-18T07:30:39.610Z,13.30
2023-03-18T07:33:12.655Z,13.50
2023-03-18T07:35:41.480Z,8.50
2023-03-18T07:38:11.064Z,7.70
2023-03-18T07:40:40.273Z,15.20
2023-03-18T07:43:08.601Z,7.60
2023-03-18T07:45:36.783Z,10.40
2023-03-18T07:48:05.670Z,9.20
2023-03-18T07:50:34.755Z,11.30
2023-03-18T07:53:04.160Z,6.10
2023-03-18T07:55:32.654Z,8.90
2023-03-18T07:58:01.804Z,9.30
2023-03-18T08:00:30.384Z,12.90
2023-03-18T08:02:59.121Z,9.90
2023-03-18T08:05:27.351Z,17.50
2023-03-18T08:07:55.598Z,8.10
2023-03-18T08:10:24.876Z,13.60
2023-03-18T08:12:54.053Z,6.00
2023-03-18T08:15:23.542Z,10.90
2023-03-18T08:17:53.302Z,9.80
2023-03-18T08:20:22.448Z,7.90
2023-03-18T08:22:50.973Z,11.80
2023-03-18T08:25:22.362Z,8.00
2023-03-18T08:27:52.058Z,12.70
2023-03-18T08:30:24.856Z,7.30
2023-03-18T08:32:54.063Z,8.20
2023-03-18T08:35:23.661Z,6.60
2023-03-18T08:37:52.950Z,7.30
2023-03-18T08:40:22.143Z,9.20
2023-03-18T08:42:55.199Z,8.50
2023-03-18T08:45:28.068Z,7.10
2023-03-18T08:47:56.358Z,4.60
2023-03-18T08:50:28.071Z,7.60
2023-03-18T08:52:57.867Z,13.90
2023-03-18T08:55:30.726Z,10.80
2023-03-18T08:57:59.594Z,13.50
2023-03-18T09:00:28.886Z,7.10
2023-03-18T09:02:57.309Z,9.70
2023-03-18T09:05:25.634Z,9.40
2023-03-18T09:07:53.858Z,12.10
2023-03-18T09:10:22.490Z,9.90
2023-03-18T09:12:51.324Z,19.60
2023-03-18T09:15:20.493Z,6.30
2023-03-18T09:18:08.108Z,11.50
2023-03-18T09:20:38.308Z,11.60
2023-03-18T09:23:06.703Z,9.60
2023-03-18T09:25:35.767Z,7.20
2023-03-18T09:28:04.398Z,12.20
2023-03-18T09:30:33.285Z,11.40
2023-03-18T09:33:01.967Z,7.30
2023-03-18T09:35:30.852Z,6.60
2023-03-18T09:37:59.853Z,11.10
2023-03-18T09:40:30.863Z,10.00
2023-03-18T09:43:18.877Z,8.60
2023-03-18T09:45:57.696Z,11.50
2023-03-18T09:48:45.521Z,9.00
2023-03-18T09:51:29.305Z,8.70
2023-03-18T09:54:03.140Z,10.80
2023-03-18T09:56:35.470Z,6.70
2023-03-18T09:59:15.832Z,10.10
2023-03-18T10:01:47.208Z,7.90
2023-03-18T10:04:20.841Z,7.90
2023-03-18T10:06:50.772Z,10.60
2023-03-18T10:09:24.889Z,11.30
2023-03-18T10:11:59.460Z,8.50
2023-03-18T10:14:38.519Z,8.00
2023-03-18T10:17:20.058Z,7.60
2023-03-18T10:19:53.207Z,7.40
2023-03-18T10:22:37.953Z,8.10
2023-03-18T10:25:18.856Z,6.00
2023-03-18T10:28:03.501Z,11.70
2023-03-18T10:30:43.063Z,9.40
2023-03-18T10:33:18.451Z,7.70
2023-03-18T10:35:53.366Z,11.80
2023-03-18T10:38:25.932Z,7.80
2023-03-18T10:40:55.708Z,9.50
2023-03-18T10:43:27.588Z,8.80
2023-03-18T10:46:02.045Z,8.80
2023-03-18T10:48:33.228Z,7.80
2023-03-18T10:51:12.587Z,7.10
2023-03-18T10:53:46.320Z,6.00
2023-03-18T10:56:15.362Z,8.40
2023-03-18T10:58:43.844Z,8.10
2023-03-18T11:01:17.153Z,8.00
2023-03-18T11:03:52.214Z,8.50
2023-03-18T11:06:25.157Z,9.10
2023-03-18T11:09:05.800Z,7.00
2023-03-18T11:11:34.866Z,9.00
2023-03-18T11:14:04.603Z,8.30
2023-03-18T11:16:39.694Z,8.30
2023-03-18T11:21:44.803Z,9.70
2023-03-18T11:24:35.696Z,4.90
2023-03-18T11:27:06.996Z,6.80
2023-03-18T11:29:40.397Z,9.70
2023-03-18T11:32:25.550Z,8.00
2023-03-18T11:35:00.089Z,7.80
2023-03-18T11:37:32.209Z,6.50
2023-03-18T11:40:27.514Z,6.70
2023-03-18T11:42:58.816Z,9.70
2023-03-18T11:45:44.026Z,11.70
2023-03-18T11:48:18.331Z,8.00
2023-03-18T11:51:00.592Z,12.00
2023-03-18T11:53:39.869Z,7.50
2023-03-18T11:56:16.739Z,6.90
2023-03-18T11:59:13.810Z,7.30
2023-03-18T12:01:52.514Z,9.60
2023-03-18T12:04:48.958Z,8.50
2023-03-18T12:07:30.201Z,8.80
2023-03-18T12:10:12.322Z,13.90
2023-03-18T12:12:54.705Z,6.30
2023-03-18T12:15:35.855Z,8.60
2023-03-18T12:18:18.084Z,10.10
2023-03-18T12:20:51.592Z,11.20
2023-03-18T12:23:36.941Z,6.50
2023-03-18T12:26:09.009Z,9.50
2023-03-18T12:28:52.476Z,10.10
2023-03-18T12:31:34.689Z,10.00
2023-03-18T12:34:04.238Z,7.20
2023-03-18T12:36:49.999Z,7.90
2023-03-18T12:39:48.918Z,7.60
2023-03-18T12:42:27.691Z,8.20
2023-03-18T12:45:02.961Z,8.80
2023-03-18T12:47:37.372Z,9.80
2023-03-18T12:50:15.695Z,7.80
2023-03-18T12:52:48.644Z,8.30
2023-03-18T12:55:21.843Z,13.50
2023-03-18T12:57:56.466Z,5.70
2023-03-18T13:00:30.623Z,11.30
2023-03-18T13:03:07.381Z,9.70
2023-03-18T13:05:44.896Z,8.30
2023-03-18T13:08:44.579Z,7.10
2023-03-18T13:11:23.669Z,11.10
2023-03-18T13:13:55.792Z,8.70
2023-03-18T13:16:25.272Z,9.60
2023-03-18T13:18:57.640Z,8.50
2023-03-18T13:21:40.806Z,5.90
2023-03-18T13:24:27.333Z,17.20
2023-03-18T13:27:14.781Z,7.70
2023-03-18T13:29:51.064Z,7.30
2023-03-18T13:32:37.366Z,8.30
2023-03-18T13:35:26.667Z,10.40
2023-03-18T13:38:25.450Z,5.80
2023-03-18T13:41:09.816Z,7.00
2023-03-18T13:43:41.901Z,13.30
2023-03-18T13:46:19.782Z,10.30
2023-03-18T13:48:49.567Z,7.20
2023-03-18T13:51:44.754Z,9.20
2023-03-18T13:54:18.056Z,10.30
2023-03-18T13:56:55.336Z,10.00
2023-03-18T13:59:46.370Z,8.20
2023-03-18T14:02:34.853Z,7.80
2023-03-18T14:05:23.389Z,8.70
2023-03-18T14:07:55.233Z,8.70
2023-03-18T14:10:24.446Z,8.60
2023-03-18T14:12:53.080Z,9.60
2023-03-18T14:15:38.695Z,8.80
2023-03-18T14:18:25.343Z,8.10
2023-03-18T14:20:59.003Z,7.40
2023-03-18T14:23:38.040Z,10.00
2023-03-18T14:26:17.510Z,8.70
2023-03-18T14:28:48.437Z,8.60
2023-03-18T14:31:26.283Z,14.40
2023-03-18T14:34:02.212Z,11.40
2023-03-18T14:37:03.897Z,9.90
2023-03-18T14:39:37.698Z,11.40
2023-03-18T14:42:13.196Z,9.10
2023-03-18T14:44:49.232Z,9.90
2023-03-18T14:47:37.447Z,12.90
2023-03-18T14:50:17.596Z,6.30
2023-03-18T14:52:55.307Z,8.20
2023-03-18T14:55:28.972Z,11.10
2023-03-18T14:57:57.509Z,8.50
2023-03-18T15:00:28.554Z,14.70
2023-03-18T15:03:03.819Z,9.80
2023-03-18T15:08:07.411Z,8.50
2023-03-18T15:10:38.550Z,15.90
2023-03-18T15:13:12.352Z,11.40
2023-03-18T15:15:42.143Z,7.90
2023-03-18T15:18:21.712Z,12.10
2023-03-18T15:20:52.907Z,10.90
2023-03-18T15:23:28.806Z,10.00
2023-03-18T15:25:57.523Z,8.20
2023-03-18T15:28:28.532Z,10.10
2023-03-18T15:30:58.918Z,11.00
2023-03-18T15:33:31.056Z,8.50
2023-03-18T15:36:06.446Z,9.40
2023-03-18T15:38:35.385Z,12.60
2023-03-18T15:41:06.725Z,8.60
2023-03-18T15:43:40.937Z,23.10
2023-03-18T15:46:18.033Z,9.90
2023-03-18T15:48:53.967Z,9.70
2023-03-18T15:51:29.456Z,10.90
2023-03-18T15:54:03.012Z,10.10
2023-03-18T15:56:32.949Z,9.80
2023-03-18T15:59:08.412Z,8.80
2023-03-18T16:01:37.296Z,14.60
2023-03-18T16:04:12.067Z,10.90
2023-03-18T16:06:40.640Z,10.30
2023-03-18T16:09:17.360Z,23.10
2023-03-18T16:11:49.981Z,13.30
2023-03-18T16:14:20.976Z,13.00
2023-03-18T16:16:49.399Z,12.20
2023-03-18T16:19:24.712Z,13.90
2023-03-18T16:24:20.851Z,15.60
2023-03-18T16:26:49.753Z,8.90
2023-03-18T16:29:22.768Z,11.70
2023-03-18T16:31:51.105Z,9.50
2023-03-18T16:34:21.734Z,12.60
2023-03-18T16:36:51.466Z,12.00
2023-03-18T16:39:23.731Z,13.10
2023-03-18T16:41:52.138Z,10.80
2023-03-18T16:44:22.943Z,16.40
2023-03-18T16:46:54.243Z,11.50
2023-03-18T16:49:25.079Z,16.30
2023-03-18T16:51:54.142Z,11.90
2023-03-18T16:54:25.133Z,16.50
2023-03-18T16:56:57.258Z,16.30
2023-03-18T16:59:31.376Z,10.40
2023-03-18T17:01:59.813Z,17.20
2023-03-18T17:04:31.167Z,13.70
2023-03-18T17:07:03.650Z,19.80
2023-03-18T17:09:32.541Z,13.50
2023-03-18T17:12:05.012Z,12.40
2023-03-18T17:14:38.013Z,15.00
2023-03-18T17:17:11.925Z,12.70
2023-03-18T17:19:40.700Z,16.90
2023-03-18T17:22:20.880Z,13.20
2023-03-18T17:24:50.438Z,13.00
2023-03-18T17:27:23.171Z,16.10
2023-03-18T17:29:52.342Z,13.40
2023-03-18T17:32:21.789Z,17.00
2023-03-18T17:34:51.409Z,13.90
2023-03-18T17:37:20.570Z,12.40
2023-03-18T17:39:49.186Z,10.60
2023-03-18T17:42:28.397Z,19.70
2023-03-18T17:44:57.958Z,12.90
2023-03-18T17:47:26.606Z,13.40
2023-03-18T17:49:55.192Z,13.20
2023-03-18T17:52:24.642Z,19.20
2023-03-18T17:54:53.839Z,10.30
2023-03-18T17:57:22.413Z,22.00
2023-03-18T17:59:51.012Z,11.90
2023-03-18T18:02:20.662Z,12.60
2023-03-18T18:04:49.205Z,14.10
2023-03-18T18:07:21.135Z,14.50
2023-03-18T18:09:52.829Z,15.70
2023-03-18T18:12:24.955Z,12.10
2023-03-18T18:14:53.238Z,22.70
2023-03-18T18:17:22.452Z,16.20
2023-03-18T18:19:51.287Z,16.80
2023-03-18T18:22:24.368Z,17.00
2023-03-18T18:24:53.248Z,19.40
2023-03-18T18:27:23.732Z,20.00
2023-03-18T18:29:52.888Z,17.60
2023-03-18T18:32:24.287Z,19.60
2023-03-18T18:34:53.461Z,17.70
2023-03-18T18:37:21.760Z,19.40
2023-03-18T18:39:52.291Z,14.90
2023-03-18T18:42:21.189Z,14.70
2023-03-18T18:44:52.117Z,18.80
2023-03-18T18:47:20.509Z,16.40
2023-03-18T18:49:48.854Z,17.70
2023-03-18T18:52:17.178Z,17.50
2023-03-18T18:54:45.741Z,12.10
2023-03-18T18:57:26.068Z,18.00
2023-03-18T18:59:56.387Z,17.70
2023-03-18T19:02:33.170Z,20.50
2023-03-18T19:05:04.127Z,20.00
2023-03-18T19:07:33.940Z,18.10
2023-03-18T19:10:03.438Z,17.90
2023-03-18T19:12:32.037Z,26.40
2023-03-18T19:15:00.493Z,22.60
2023-03-18T19:17:28.804Z,17.70
2023-03-18T19:19:59.721Z,22.30
2023-03-18T19:22:28.019Z,17.70
2023-03-18T19:24:56.795Z,19.00
2023-03-18T19:27:28.478Z,19.30
2023-03-18T19:30:00.846Z,20.10
2023-03-18T19:32:29.560Z,20.20
2023-03-18T19:34:58.013Z,18.70
2023-03-18T19:37:28.615Z,22.70
2023-03-18T19:39:59.300Z,17.90
2023-03-18T19:42:27.511Z,16.60
2023-03-18T19:44:55.916Z,28.70
2023-03-18T19:47:26.570Z,15.20
2023-03-18T19:49:55.239Z,23.70
2023-03-18T19:52:25.757Z,22.20
2023-03-18T19:54:55.091Z,23.00
2023-03-18T19:57:26.980Z,23.40
2023-03-18T19:59:58.280Z,28.90
2023-03-18T20:02:28.085Z,19.90
2023-03-18T20:04:58.670Z,23.30
2023-03-18T20:07:29.633Z,26.90
2023-03-18T20:09:57.960Z,25.60
2023-03-18T20:12:29.766Z,23.30
2023-03-18T20:14:58.061Z,21.30
2023-03-18T20:17:34.259Z,20.50
2023-03-18T20:20:02.648Z,22.50
2023-03-18T20:22:34.203Z,20.50
2023-03-18T20:25:04.401Z,27.90
2023-03-18T20:27:32.660Z,19.60
2023-03-18T20:30:01.056Z,23.40
2023-03-18T20:32:31.895Z,24.50
2023-03-18T20:35:02.881Z,20.90
2023-03-18T20:37:36.232Z,15.20
2023-03-18T20:40:14.282Z,26.80
2023-03-18T20:42:42.477Z,18.20
2023-03-18T20:45:15.673Z,21.50
2023-03-18T20:47:44.256Z,24.00
2023-03-18T20:50:15.485Z,23.50
2023-03-18T20:52:46.566Z,20.60
2023-03-18T20:55:24.968Z,19.20
2023-03-18T20:57:54.101Z,22.30
2023-03-18T21:00:24.999Z,21.70
2023-03-18T21:02:55.963Z,24.90
2023-03-18T21:05:25.596Z,21.00
2023-03-18T21:07:54.357Z,19.90
2023-03-18T21:10:24.439Z,23.60
2023-03-18T21:12:54.954Z,25.80
2023-03-18T21:15:25.826Z,19.90
2023-03-18T21:17:55.086Z,21.70
2023-03-18T21:20:27.217Z,20.20
2023-03-18T21:22:56.462Z,19.00
2023-03-18T21:25:26.946Z,24.50
2023-03-18T21:27:55.766Z,23.60
2023-03-18T21:30:24.335Z,19.10
2023-03-18T21:32:52.841Z,24.10
2023-03-18T21:35:23.079Z,22.40
2023-03-18T21:37:51.908Z,28.20
2023-03-18T21:40:22.663Z,24.80
2023-03-18T21:42:51.628Z,22.80
2023-03-18T21:45:23.134Z,23.90
2023-03-18T21:47:52.287Z,34.70
2023-03-18T21:50:23.810Z,23.80
2023-03-18T21:52:53.548Z,31.40
2023-03-18T21:55:22.280Z,30.10
2023-03-18T21:57:51.502Z,35.20
2023-03-18T22:00:21.227Z,24.50
2023-03-18T22:02:49.846Z,33.50
2023-03-18T22:05:20.040Z,23.30
2023-03-18T22:07:49.818Z,23.00
2023-03-18T22:10:20.629Z,23.60
2023-03-18T22:12:49.448Z,23.70
2023-03-18T22:15:35.962Z,27.30
2023-03-18T22:18:05.521Z,28.20
2023-03-18T22:20:35.273Z,26.00
2023-03-18T22:23:16.031Z,25.50
2023-03-18T22:25:45.878Z,25.20
2023-03-18T22:28:14.062Z,19.50
2023-03-18T22:30:44.173Z,24.60
2023-03-18T22:33:21.116Z,30.80
2023-03-18T22:35:49.438Z,25.10
2023-03-18T22:38:19.372Z,20.60
2023-03-18T22:40:49.243Z,28.50
2023-03-18T22:43:27.217Z,24.40
2023-03-18T22:45:56.022Z,24.80
2023-03-18T22:48:25.136Z,27.30
2023-03-18T22:50:54.455Z,25.00
2023-03-18T22:53:25.329Z,23.30
2023-03-18T22:55:55.906Z,27.80
2023-03-18T22:58:26.783Z,23.70
2023-03-18T23:00:56.573Z,24.90
2023-03-18T23:03:28.470Z,27.00
2023-03-18T23:05:58.363Z,27.40
2023-03-18T23:08:27.587Z,26.60
2023-03-18T23:10:58.800Z,28.10
2023-03-18T23:13:30.148Z,24.10
2023-03-18T23:15:58.495Z,27.10
2023-03-18T23:18:26.722Z,21.30
2023-03-18T23:20:55.364Z,24.50
2023-03-18T23:23:23.720Z,22.80
2023-03-18T23:25:52.295Z,21.80
2023-03-18T23:28:20.497Z,24.60
2023-03-18T23:30:51.396Z,21.00
2023-03-18T23:33:20.163Z,20.20
2023-03-18T23:35:48.542Z,23.90
2023-03-18T23:38:17.133Z,17.70
2023-03-18T23:40:45.402Z,19.50
2023-03-18T23:43:13.965Z,26.00
2023-03-18T23:45:42.295Z,25.80
2023-03-18T23:48:10.619Z,24.20
2023-03-18T23:50:38.943Z,29.40
2023-03-18T23:53:07.100Z,25.00
2023-03-18T23:55:35.781Z,24.10
2023-03-18T23:58:04.368Z,21.90
